• Join FlightAware (Why Join?)
  • Login
  • US Flag 
01:18AM EST


 

Airport Tracker/Info


-or-


 

Live Flight TrackerFlight Track Log ✈ ASQ2545 ✈ 09-Jul-2013 ✈ KTXK - KDFW

Flight Track Log - Related Links

Times and Time Zones

All times are in EDT time to prevent confusion due to time zone crossing. See the ASQ2545 flight status page for this flight to view local times or setup timezone preferences in your user account.

Time Position Orientation Groundspeed Altitude Reporting Facility
EDT Latitude Longitude Course Direction KTS MPH feet Rate Location/Type
06:00PM 33.4775 -94.0614 252° West 292 336 3,100  Level Fort Worth Center
06:01PM 33.5042 -94.1228 298° West 227 261 5,500 2,340 Climbing Fort Worth Center
06:02PM 33.5064 -94.2097 272° West 227 261 7,800 2,220 Climbing Fort Worth Center
06:03PM 33.5089 -94.3019 272° West 256 295 10,000 1,440 Climbing Fort Worth Center
06:04PM 33.6065 -94.4026 292° West  Level FlightAware Approximate
06:04PM 33.5114 -94.4064 272° West 289 333 10,700  Level Fort Worth Center
06:05PM 33.6315 -94.4739 294° West  Level FlightAware Approximate
06:05PM 33.5142 -94.5233 272° West 328 377 12,000  Level Fort Worth Center
06:06PM 33.6074 -94.5617 252° West  Level Estimated
06:06PM 33.5169 -94.6456 272° West 355 409 13,300  Level Fort Worth Center
06:07PM 33.5175 -94.7675 270° West 367 422 14,700 1,320 Climbing Fort Worth Center
06:08PM 33.5200 -94.8919 271° West 372 428 16,000 1,200 Climbing Fort Worth Center
06:09PM 33.5225 -95.0164 271° West 372 428 17,200 960 Climbing Fort Worth Center
06:10PM 33.5228 -95.1461 270° West 380 437 18,000 360 Climbing Fort Worth Center
06:11PM 33.5269 -95.2781 272° West 391 450 18,000  Level Fort Worth Center
06:12PM 33.5128 -95.4178 263° West 410 472 18,000  Level Fort Worth Center
06:13PM 33.4981 -95.5553 263° West 421 484 18,000  Level Fort Worth Center
06:14PM 33.4856 -95.6975 264° West 427 491 18,000 -300 Level Fort Worth Center
06:15PM 33.4667 -95.8522 262° West 433 498 17,500 -780 Descending Fort Worth Center
06:16PM 33.4514 -95.9669 261° West 412 474 16,500 -1,200 Descending Fort Worth Center
06:17PM 33.4381 -96.0867 262° West 361 415 15,100 -1,320 Descending Fort Worth Center
06:18PM 33.4264 -96.1789 261° West 323 372 13,900 -1,380 Descending Fort Worth Center
06:19PM 33.4128 -96.2936 262° West 313 360 12,400 -1,440 Descending Fort Worth Center
06:20PM 33.4031 -96.3783 262° West 308 354 11,100 -1,680 Descending Fort Worth Center
06:21PM 33.3667 -96.4333 232° Southwest 284 327 9,600 -1,860 Descending Dallas / Fort Worth TRACON
06:22PM 33.3333 -96.5167 244° Southwest 270 311 8,200 -1,200 Descending Dallas / Fort Worth TRACON
06:23PM 33.3000 -96.6000 244° Southwest 270 311 7,300 -780 Descending Dallas / Fort Worth TRACON
06:24PM 33.2667 -96.6667 239° Southwest 267 307 6,600 -840 Descending Dallas / Fort Worth TRACON
06:25PM 33.2167 -96.7500 234° Southwest 268 308 5,700 -840 Descending Dallas / Fort Worth TRACON
06:26PM 33.1667 -96.8167 228° Southwest 254 292 5,000 -900 Descending Dallas / Fort Worth TRACON
06:27PM 33.1333 -96.8833 239° Southwest 257 296 4,000 -1,020 Descending Dallas / Fort Worth TRACON
06:28PM 33.0833 -96.9500 228° Southwest 252 290 3,000 -540 Descending Dallas / Fort Worth TRACON
06:29PM 33.0500 -97.0000 232° Southwest 210 242 3,000 -420 Level Dallas / Fort Worth TRACON
06:30PM 33.0000 -97.0167 196° South 186 214 2,200 -900 Descending Dallas / Fort Worth TRACON
06:31PM 32.9500 -97.0167 180° South 141 162 1,300 -900 Descending Dallas / Fort Worth TRACON
06:33PM 32.8968 -97.0380 197° South  Level Estimated
06:40PM 32.8968 -97.0380 197° South  Level Estimated